sensor_id;sensor_type;location;lat;lon;timestamp;temperature;humidity
14517;DHT22;7344;50.864;4.362;2023-03-19T00:01:26;12.40;99.90
14517;DHT22;7344;50.864;4.362;2023-03-19T00:03:52;12.30;99.90
14517;DHT22;7344;50.864;4.362;2023-03-19T00:06:18;12.30;99.90
14517;DHT22;7344;50.864;4.362;2023-03-19T00:08:43;12.20;99.90
14517;DHT22;7344;50.864;4.362;2023-03-19T00:11:12;12.10;99.90
14517;DHT22;7344;50.864;4.362;2023-03-19T00:13:38;12.10;99.90
14517;DHT22;7344;50.864;4.362;2023-03-19T00:16:05;12.10;99.90
14517;DHT22;7344;50.864;4.362;2023-03-19T00:18:31;12.10;99.90
14517;DHT22;7344;50.864;4.362;2023-03-19T00:20:57;12.00;99.90
14517;DHT22;7344;50.864;4.362;2023-03-19T00:23:23;11.90;99.90
14517;DHT22;7344;50.864;4.362;2023-03-19T00:25:48;11.90;99.90
14517;DHT22;7344;50.864;4.362;2023-03-19T00:28:14;11.90;99.90
14517;DHT22;7344;50.864;4.362;2023-03-19T00:30:40;11.80;99.90
14517;DHT22;7344;50.864;4.362;2023-03-19T00:33:06;11.80;99.90
14517;DHT22;7344;50.864;4.362;2023-03-19T00:35:32;11.80;99.90
14517;DHT22;7344;50.864;4.362;2023-03-19T00:37:58;11.80;99.90
14517;DHT22;7344;50.864;4.362;2023-03-19T00:40:23;11.80;99.90
14517;DHT22;7344;50.864;4.362;2023-03-19T00:42:49;11.80;99.90
14517;DHT22;7344;50.864;4.362;2023-03-19T00:45:15;11.90;99.90
14517;DHT22;7344;50.864;4.362;2023-03-19T00:47:40;11.80;99.90
14517;DHT22;7344;50.864;4.362;2023-03-19T00:50:07;11.90;99.90
14517;DHT22;7344;50.864;4.362;2023-03-19T00:52:33;11.90;99.90
14517;DHT22;7344;50.864;4.362;2023-03-19T00:54:59;12.00;99.90
14517;DHT22;7344;50.864;4.362;2023-03-19T00:57:25;12.00;99.90
14517;DHT22;7344;50.864;4.362;2023-03-19T00:59:51;12.00;99.90
14517;DHT22;7344;50.864;4.362;2023-03-19T01:02:17;12.10;99.90
14517;DHT22;7344;50.864;4.362;2023-03-19T01:04:42;12.10;99.90
14517;DHT22;7344;50.864;4.362;2023-03-19T01:07:08;12.10;99.90
14517;DHT22;7344;50.864;4.362;2023-03-19T01:09:34;12.10;99.90
14517;DHT22;7344;50.864;4.362;2023-03-19T01:12:01;12.20;99.90
14517;DHT22;7344;50.864;4.362;2023-03-19T01:14:30;12.10;99.90
14517;DHT22;7344;50.864;4.362;2023-03-19T01:16:55;12.20;99.90
14517;DHT22;7344;50.864;4.362;2023-03-19T01:19:21;12.20;99.90
14517;DHT22;7344;50.864;4.362;2023-03-19T01:21:48;12.30;99.90
14517;DHT22;7344;50.864;4.362;2023-03-19T01:24:14;12.30;99.90
14517;DHT22;7344;50.864;4.362;2023-03-19T01:26:41;12.20;99.90
14517;DHT22;7344;50.864;4.362;2023-03-19T01:29:08;12.10;99.90
14517;DHT22;7344;50.864;4.362;2023-03-19T01:31:34;12.10;99.90
14517;DHT22;7344;50.864;4.362;2023-03-19T01:34:00;12.20;99.90
14517;DHT22;7344;50.864;4.362;2023-03-19T01:36:26;12.30;99.90
14517;DHT22;7344;50.864;4.362;2023-03-19T01:38:52;12.30;99.90
14517;DHT22;7344;50.864;4.362;2023-03-19T01:41:18;12.30;99.90
14517;DHT22;7344;50.864;4.362;2023-03-19T01:43:44;12.30;99.90
14517;DHT22;7344;50.864;4.362;2023-03-19T01:48:58;12.40;99.90
14517;DHT22;7344;50.864;4.362;2023-03-19T01:51:31;12.30;99.90
14517;DHT22;7344;50.864;4.362;2023-03-19T01:54:01;12.30;99.90
14517;DHT22;7344;50.864;4.362;2023-03-19T01:56:33;12.30;99.90
14517;DHT22;7344;50.864;4.362;2023-03-19T01:59:26;12.30;99.90
14517;DHT22;7344;50.864;4.362;2023-03-19T02:01:58;12.10;99.90
14517;DHT22;7344;50.864;4.362;2023-03-19T02:04:26;12.20;99.90
14517;DHT22;7344;50.864;4.362;2023-03-19T02:06:54;12.20;99.90
14517;DHT22;7344;50.864;4.362;2023-03-19T02:09:21;12.30;99.90
14517;DHT22;7344;50.864;4.362;2023-03-19T02:11:47;12.40;99.90
14517;DHT22;7344;50.864;4.362;2023-03-19T02:14:14;12.40;99.90
14517;DHT22;7344;50.864;4.362;2023-03-19T02:16:39;12.50;99.90
14517;DHT22;7344;50.864;4.362;2023-03-19T02:19:08;12.40;99.90
14517;DHT22;7344;50.864;4.362;2023-03-19T02:21:37;12.40;99.90
14517;DHT22;7344;50.864;4.362;2023-03-19T02:26:41;12.40;99.90
14517;DHT22;7344;50.864;4.362;2023-03-19T02:29:08;12.40;99.90
14517;DHT22;7344;50.864;4.362;2023-03-19T02:31:34;12.40;99.90
14517;DHT22;7344;50.864;4.362;2023-03-19T02:34:04;12.30;99.90
14517;DHT22;7344;50.864;4.362;2023-03-19T02:36:37;12.30;99.90
14517;DHT22;7344;50.864;4.362;2023-03-19T02:39:21;12.20;99.90
14517;DHT22;7344;50.864;4.362;2023-03-19T02:41:48;12.20;99.90
14517;DHT22;7344;50.864;4.362;2023-03-19T02:44:14;12.20;99.90
14517;DHT22;7344;50.864;4.362;2023-03-19T02:46:44;12.10;99.90
14517;DHT22;7344;50.864;4.362;2023-03-19T02:49:10;12.10;99.90
14517;DHT22;7344;50.864;4.362;2023-03-19T02:51:36;12.20;99.90
14517;DHT22;7344;50.864;4.362;2023-03-19T02:54:02;12.20;99.90
14517;DHT22;7344;50.864;4.362;2023-03-19T02:56:28;12.00;99.90
14517;DHT22;7344;50.864;4.362;2023-03-19T02:58:54;12.00;99.90
14517;DHT22;7344;50.864;4.362;2023-03-19T03:01:20;12.00;99.90
14517;DHT22;7344;50.864;4.362;2023-03-19T03:03:45;12.10;99.90
14517;DHT22;7344;50.864;4.362;2023-03-19T03:06:11;12.10;99.90
14517;DHT22;7344;50.864;4.362;2023-03-19T03:08:37;12.10;99.90
14517;DHT22;7344;50.864;4.362;2023-03-19T03:11:03;12.10;99.90
14517;DHT22;7344;50.864;4.362;2023-03-19T03:13:29;12.10;99.90
14517;DHT22;7344;50.864;4.362;2023-03-19T03:15:54;12.10;99.90
14517;DHT22;7344;50.864;4.362;2023-03-19T03:18:20;12.10;99.90
14517;DHT22;7344;50.864;4.362;2023-03-19T03:20:45;12.10;99.90
14517;DHT22;7344;50.864;4.362;2023-03-19T03:23:11;12.00;99.90
14517;DHT22;7344;50.864;4.362;2023-03-19T03:25:37;12.00;99.90
14517;DHT22;7344;50.864;4.362;2023-03-19T03:28:03;11.90;99.90
14517;DHT22;7344;50.864;4.362;2023-03-19T03:30:29;11.90;99.90
14517;DHT22;7344;50.864;4.362;2023-03-19T03:32:54;11.90;99.90
14517;DHT22;7344;50.864;4.362;2023-03-19T03:35:20;11.90;99.90
14517;DHT22;7344;50.864;4.362;2023-03-19T03:37:48;11.90;99.90
14517;DHT22;7344;50.864;4.362;2023-03-19T03:40:13;11.80;99.90
14517;DHT22;7344;50.864;4.362;2023-03-19T03:42:41;11.70;99.90
14517;DHT22;7344;50.864;4.362;2023-03-19T03:45:08;11.60;99.90
14517;DHT22;7344;50.864;4.362;2023-03-19T03:47:35;11.50;99.90
14517;DHT22;7344;50.864;4.362;2023-03-19T03:50:02;11.40;99.90
14517;DHT22;7344;50.864;4.362;2023-03-19T03:52:29;11.30;99.90
14517;DHT22;7344;50.864;4.362;2023-03-19T03:54:59;11.30;99.90
14517;DHT22;7344;50.864;4.362;2023-03-19T03:57:25;11.20;99.90
14517;DHT22;7344;50.864;4.362;2023-03-19T03:59:52;11.10;99.90
14517;DHT22;7344;50.864;4.362;2023-03-19T04:02:17;11.10;99.90
14517;DHT22;7344;50.864;4.362;2023-03-19T04:04:43;11.10;99.90
14517;DHT22;7344;50.864;4.362;2023-03-19T04:07:09;11.00;99.90
14517;DHT22;7344;50.864;4.362;2023-03-19T04:09:34;10.90;99.90
14517;DHT22;7344;50.864;4.362;2023-03-19T04:12:00;10.90;99.90
14517;DHT22;7344;50.864;4.362;2023-03-19T04:14:26;10.90;99.90
14517;DHT22;7344;50.864;4.362;2023-03-19T04:16:52;10.80;99.90
14517;DHT22;7344;50.864;4.362;2023-03-19T04:19:18;10.80;99.90
14517;DHT22;7344;50.864;4.362;2023-03-19T04:21:44;10.80;99.90
14517;DHT22;7344;50.864;4.362;2023-03-19T04:24:10;10.70;99.90
14517;DHT22;7344;50.864;4.362;2023-03-19T04:26:36;10.80;99.90
14517;DHT22;7344;50.864;4.362;2023-03-19T04:29:03;10.70;99.90
14517;DHT22;7344;50.864;4.362;2023-03-19T04:31:28;10.70;99.90
14517;DHT22;7344;50.864;4.362;2023-03-19T04:33:54;10.60;99.90
14517;DHT22;7344;50.864;4.362;2023-03-19T04:36:19;10.60;99.90
14517;DHT22;7344;50.864;4.362;2023-03-19T04:38:45;10.60;99.90
14517;DHT22;7344;50.864;4.362;2023-03-19T04:41:12;10.50;99.90
14517;DHT22;7344;50.864;4.362;2023-03-19T04:43:38;10.50;99.90
14517;DHT22;7344;50.864;4.362;2023-03-19T04:46:04;10.50;99.90
14517;DHT22;7344;50.864;4.362;2023-03-19T04:48:32;10.50;99.90
14517;DHT22;7344;50.864;4.362;2023-03-19T04:51:00;10.40;99.90
14517;DHT22;7344;50.864;4.362;2023-03-19T04:53:27;10.30;99.90
14517;DHT22;7344;50.864;4.362;2023-03-19T04:55:53;10.30;99.90
14517;DHT22;7344;50.864;4.362;2023-03-19T04:58:19;10.30;99.90
14517;DHT22;7344;50.864;4.362;2023-03-19T05:00:45;10.30;99.90
14517;DHT22;7344;50.864;4.362;2023-03-19T05:03:15;10.30;99.90
14517;DHT22;7344;50.864;4.362;2023-03-19T05:05:41;10.40;99.90
14517;DHT22;7344;50.864;4.362;2023-03-19T05:08:08;10.40;99.90
14517;DHT22;7344;50.864;4.362;2023-03-19T05:10:35;10.30;99.90
14517;DHT22;7344;50.864;4.362;2023-03-19T05:13:00;10.30;99.90
14517;DHT22;7344;50.864;4.362;2023-03-19T05:15:26;10.30;99.90
14517;DHT22;7344;50.864;4.362;2023-03-19T05:17:52;10.20;99.90
14517;DHT22;7344;50.864;4.362;2023-03-19T05:20:18;10.20;99.90
14517;DHT22;7344;50.864;4.362;2023-03-19T05:22:44;10.20;99.90
14517;DHT22;7344;50.864;4.362;2023-03-19T05:25:11;10.20;99.90
14517;DHT22;7344;50.864;4.362;2023-03-19T05:27:36;10.10;99.90
14517;DHT22;7344;50.864;4.362;2023-03-19T05:30:03;10.10;99.90
14517;DHT22;7344;50.864;4.362;2023-03-19T05:32:29;10.10;99.90
14517;DHT22;7344;50.864;4.362;2023-03-19T05:34:55;10.00;99.90
14517;DHT22;7344;50.864;4.362;2023-03-19T05:37:20;10.00;99.90
14517;DHT22;7344;50.864;4.362;2023-03-19T05:39:46;10.00;99.90
14517;DHT22;7344;50.864;4.362;2023-03-19T05:42:12;10.00;99.90
14517;DHT22;7344;50.864;4.362;2023-03-19T05:44:39;9.90;99.90
14517;DHT22;7344;50.864;4.362;2023-03-19T05:47:04;9.90;99.90
14517;DHT22;7344;50.864;4.362;2023-03-19T05:49:30;9.90;99.90
14517;DHT22;7344;50.864;4.362;2023-03-19T05:51:56;9.90;99.90
14517;DHT22;7344;50.864;4.362;2023-03-19T05:54:21;9.90;99.90
14517;DHT22;7344;50.864;4.362;2023-03-19T05:56:47;9.90;99.90
14517;DHT22;7344;50.864;4.362;2023-03-19T05:59:12;9.90;99.90
14517;DHT22;7344;50.864;4.362;2023-03-19T06:01:38;9.90;99.90
14517;DHT22;7344;50.864;4.362;2023-03-19T06:04:04;10.00;99.90
14517;DHT22;7344;50.864;4.362;2023-03-19T06:06:29;10.00;99.90
14517;DHT22;7344;50.864;4.362;2023-03-19T06:08:55;10.00;99.90
14517;DHT22;7344;50.864;4.362;2023-03-19T06:11:21;10.00;99.90
14517;DHT22;7344;50.864;4.362;2023-03-19T06:13:46;10.10;99.90
14517;DHT22;7344;50.864;4.362;2023-03-19T06:16:12;10.20;99.90
14517;DHT22;7344;50.864;4.362;2023-03-19T06:18:38;10.20;99.90
14517;DHT22;7344;50.864;4.362;2023-03-19T06:21:03;10.20;99.90
14517;DHT22;7344;50.864;4.362;2023-03-19T06:23:30;10.30;99.90
14517;DHT22;7344;50.864;4.362;2023-03-19T06:25:55;10.30;99.90
14517;DHT22;7344;50.864;4.362;2023-03-19T06:28:21;10.40;99.90
14517;DHT22;7344;50.864;4.362;2023-03-19T06:30:47;10.50;99.90
14517;DHT22;7344;50.864;4.362;2023-03-19T06:33:12;10.40;99.90
14517;DHT22;7344;50.864;4.362;2023-03-19T06:35:39;10.40;99.90
14517;DHT22;7344;50.864;4.362;2023-03-19T06:38:05;10.30;99.90
14517;DHT22;7344;50.864;4.362;2023-03-19T06:40:31;10.40;99.90
14517;DHT22;7344;50.864;4.362;2023-03-19T06:42:57;10.30;99.90
14517;DHT22;7344;50.864;4.362;2023-03-19T06:45:23;10.30;99.90
14517;DHT22;7344;50.864;4.362;2023-03-19T06:47:48;10.30;99.90
14517;DHT22;7344;50.864;4.362;2023-03-19T06:50:15;10.30;99.90
14517;DHT22;7344;50.864;4.362;2023-03-19T06:52:41;10.30;99.90
14517;DHT22;7344;50.864;4.362;2023-03-19T06:55:07;10.40;99.90
14517;DHT22;7344;50.864;4.362;2023-03-19T06:57:34;10.50;99.90
14517;DHT22;7344;50.864;4.362;2023-03-19T07:00:00;10.70;99.90
14517;DHT22;7344;50.864;4.362;2023-03-19T07:02:26;11.20;99.90
14517;DHT22;7344;50.864;4.362;2023-03-19T07:04:52;11.70;99.90
14517;DHT22;7344;50.864;4.362;2023-03-19T07:07:18;12.80;99.90
14517;DHT22;7344;50.864;4.362;2023-03-19T07:09:43;14.20;93.00
14517;DHT22;7344;50.864;4.362;2023-03-19T07:12:12;15.50;20.90
14517;DHT22;7344;50.864;4.362;2023-03-19T07:14:37;16.70;1.00
14517;DHT22;7344;50.864;4.362;2023-03-19T07:17:03;18.40;1.00
14517;DHT22;7344;50.864;4.362;2023-03-19T07:19:29;19.10;1.00
14517;DHT22;7344;50.864;4.362;2023-03-19T07:21:57;19.80;1.00
14517;DHT22;7344;50.864;4.362;2023-03-19T07:24:23;20.00;1.00
14517;DHT22;7344;50.864;4.362;2023-03-19T07:26:48;20.00;99.90
14517;DHT22;7344;50.864;4.362;2023-03-19T07:29:17;19.80;99.90
14517;DHT22;7344;50.864;4.362;2023-03-19T07:31:42;20.40;1.00
14517;DHT22;7344;50.864;4.362;2023-03-19T07:34:08;20.90;1.00
14517;DHT22;7344;50.864;4.362;2023-03-19T07:36:33;21.20;99.90
14517;DHT22;7344;50.864;4.362;2023-03-19T07:38:59;21.80;1.00
14517;DHT22;7344;50.864;4.362;2023-03-19T07:41:25;21.50;99.90
14517;DHT22;7344;50.864;4.362;2023-03-19T07:43:50;21.70;1.00
14517;DHT22;7344;50.864;4.362;2023-03-19T07:46:16;22.20;84.20
14517;DHT22;7344;50.864;4.362;2023-03-19T07:48:42;22.90;1.00
14517;DHT22;7344;50.864;4.362;2023-03-19T07:51:07;22.70;1.00
14517;DHT22;7344;50.864;4.362;2023-03-19T07:53:33;23.00;1.00
14517;DHT22;7344;50.864;4.362;2023-03-19T07:55:59;23.50;1.00
14517;DHT22;7344;50.864;4.362;2023-03-19T07:58:24;23.40;99.90
14517;DHT22;7344;50.864;4.362;2023-03-19T08:00:52;23.10;1.00
14517;DHT22;7344;50.864;4.362;2023-03-19T08:03:18;23.60;1.00
14517;DHT22;7344;50.864;4.362;2023-03-19T08:05:44;24.60;1.00
14517;DHT22;7344;50.864;4.362;2023-03-19T08:08:12;24.00;1.00
14517;DHT22;7344;50.864;4.362;2023-03-19T08:10:37;24.20;1.00
14517;DHT22;7344;50.864;4.362;2023-03-19T08:13:03;25.20;1.00
14517;DHT22;7344;50.864;4.362;2023-03-19T08:15:29;25.00;99.90
14517;DHT22;7344;50.864;4.362;2023-03-19T08:18:02;25.50;83.60
14517;DHT22;7344;50.864;4.362;2023-03-19T08:20:29;25.20;99.90
14517;DHT22;7344;50.864;4.362;2023-03-19T08:22:55;25.70;99.90
14517;DHT22;7344;50.864;4.362;2023-03-19T08:25:21;25.70;1.00
14517;DHT22;7344;50.864;4.362;2023-03-19T08:27:48;25.90;1.00
14517;DHT22;7344;50.864;4.362;2023-03-19T08:30:13;26.80;1.00
14517;DHT22;7344;50.864;4.362;2023-03-19T08:32:39;26.90;1.00
14517;DHT22;7344;50.864;4.362;2023-03-19T08:35:05;26.90;1.00
14517;DHT22;7344;50.864;4.362;2023-03-19T08:37:31;27.20;1.00
14517;DHT22;7344;50.864;4.362;2023-03-19T08:39:57;25.90;1.00
14517;DHT22;7344;50.864;4.362;2023-03-19T08:42:23;26.20;1.00
14517;DHT22;7344;50.864;4.362;2023-03-19T08:44:49;26.60;1.00
14517;DHT22;7344;50.864;4.362;2023-03-19T08:47:15;26.30;1.00
14517;DHT22;7344;50.864;4.362;2023-03-19T08:49:41;27.00;1.00
14517;DHT22;7344;50.864;4.362;2023-03-19T08:52:07;26.80;1.00
14517;DHT22;7344;50.864;4.362;2023-03-19T08:54:33;26.20;1.00
14517;DHT22;7344;50.864;4.362;2023-03-19T08:56:59;25.00;1.00
14517;DHT22;7344;50.864;4.362;2023-03-19T08:59:26;24.10;1.00
14517;DHT22;7344;50.864;4.362;2023-03-19T09:01:52;23.60;99.90
14517;DHT22;7344;50.864;4.362;2023-03-19T09:04:21;23.10;99.90
14517;DHT22;7344;50.864;4.362;2023-03-19T09:06:47;22.20;1.00
14517;DHT22;7344;50.864;4.362;2023-03-19T09:09:20;22.10;99.90
14517;DHT22;7344;50.864;4.362;2023-03-19T09:11:46;22.10;99.90
14517;DHT22;7344;50.864;4.362;2023-03-19T09:14:13;21.80;1.00
14517;DHT22;7344;50.864;4.362;2023-03-19T09:16:41;20.60;99.90
14517;DHT22;7344;50.864;4.362;2023-03-19T09:19:07;19.90;1.00
14517;DHT22;7344;50.864;4.362;2023-03-19T09:21:32;19.20;89.70
14517;DHT22;7344;50.864;4.362;2023-03-19T09:23:58;18.50;1.00
14517;DHT22;7344;50.864;4.362;2023-03-19T09:26:24;17.80;1.00
14517;DHT22;7344;50.864;4.362;2023-03-19T09:28:50;17.20;1.00
14517;DHT22;7344;50.864;4.362;2023-03-19T09:31:16;16.50;1.00
14517;DHT22;7344;50.864;4.362;2023-03-19T09:33:41;16.00;1.00
14517;DHT22;7344;50.864;4.362;2023-03-19T09:36:07;15.70;1.00
14517;DHT22;7344;50.864;4.362;2023-03-19T09:38:33;15.50;1.00
14517;DHT22;7344;50.864;4.362;2023-03-19T09:41:15;15.40;1.00
14517;DHT22;7344;50.864;4.362;2023-03-19T09:44:00;15.60;1.00
14517;DHT22;7344;50.864;4.362;2023-03-19T09:47:21;15.60;1.00
14517;DHT22;7344;50.864;4.362;2023-03-19T09:49:29;15.50;1.00
14517;DHT22;7344;50.864;4.362;2023-03-19T09:54:48;15.20;1.00
14517;DHT22;7344;50.864;4.362;2023-03-19T09:57:17;15.10;1.00
14517;DHT22;7344;50.864;4.362;2023-03-19T09:59:42;15.30;1.00
14517;DHT22;7344;50.864;4.362;2023-03-19T10:02:30;15.30;1.00
14517;DHT22;7344;50.864;4.362;2023-03-19T10:14:05;15.10;1.00
14517;DHT22;7344;50.864;4.362;2023-03-19T10:16:37;14.90;1.00
14517;DHT22;7344;50.864;4.362;2023-03-19T10:19:04;15.00;1.00
14517;DHT22;7344;50.864;4.362;2023-03-19T10:26:32;15.60;1.00
14517;DHT22;7344;50.864;4.362;2023-03-19T10:29:11;15.60;1.00
14517;DHT22;7344;50.864;4.362;2023-03-19T10:31:51;15.80;1.00
14517;DHT22;7344;50.864;4.362;2023-03-19T10:34:31;16.00;1.00
14517;DHT22;7344;50.864;4.362;2023-03-19T10:36:59;16.30;1.00
14517;DHT22;7344;50.864;4.362;2023-03-19T10:39:25;16.60;1.00
14517;DHT22;7344;50.864;4.362;2023-03-19T10:44:41;17.20;1.00
14517;DHT22;7344;50.864;4.362;2023-03-19T10:47:13;17.20;1.00
14517;DHT22;7344;50.864;4.362;2023-03-19T10:49:39;16.80;1.00
14517;DHT22;7344;50.864;4.362;2023-03-19T10:52:08;16.90;1.00
14517;DHT22;7344;50.864;4.362;2023-03-19T10:54:42;16.40;1.00
14517;DHT22;7344;50.864;4.362;2023-03-19T10:57:21;16.40;1.00
14517;DHT22;7344;50.864;4.362;2023-03-19T10:59:47;16.20;1.00
14517;DHT22;7344;50.864;4.362;2023-03-19T11:02:18;16.20;1.00
14517;DHT22;7344;50.864;4.362;2023-03-19T11:04:45;15.90;1.00
14517;DHT22;7344;50.864;4.362;2023-03-19T11:07:19;15.70;1.00
14517;DHT22;7344;50.864;4.362;2023-03-19T11:09:48;15.00;1.00
14517;DHT22;7344;50.864;4.362;2023-03-19T11:12:18;14.80;10.30
14517;DHT22;7344;50.864;4.362;2023-03-19T11:14:56;14.60;17.20
14517;DHT22;7344;50.864;4.362;2023-03-19T11:17:27;14.60;21.40
14517;DHT22;7344;50.864;4.362;2023-03-19T11:19:55;14.30;24.30
14517;DHT22;7344;50.864;4.362;2023-03-19T11:22:26;14.30;27.90
14517;DHT22;7344;50.864;4.362;2023-03-19T11:24:56;14.30;30.50
14517;DHT22;7344;50.864;4.362;2023-03-19T11:27:33;14.80;24.60
14517;DHT22;7344;50.864;4.362;2023-03-19T11:30:00;15.20;5.50
14517;DHT22;7344;50.864;4.362;2023-03-19T11:34:58;15.80;1.00
14517;DHT22;7344;50.864;4.362;2023-03-19T11:37:54;15.70;1.00
14517;DHT22;7344;50.864;4.362;2023-03-19T11:40:33;15.90;1.00
14517;DHT22;7344;50.864;4.362;2023-03-19T11:51:49;15.80;1.00
14517;DHT22;7344;50.864;4.362;2023-03-19T11:57:03;16.00;1.00
14517;DHT22;7344;50.864;4.362;2023-03-19T11:59:56;15.80;1.00
14517;DHT22;7344;50.864;4.362;2023-03-19T12:24:40;16.20;1.00
14517;DHT22;7344;50.864;4.362;2023-03-19T12:35:46;15.80;1.00
14517;DHT22;7344;50.864;4.362;2023-03-19T12:41:05;15.00;8.20
14517;DHT22;7344;50.864;4.362;2023-03-19T12:46:12;15.50;1.30
14517;DHT22;7344;50.864;4.362;2023-03-19T12:48:49;15.80;1.00
14517;DHT22;7344;50.864;4.362;2023-03-19T12:51:22;16.10;1.00
14517;DHT22;7344;50.864;4.362;2023-03-19T12:53:59;16.00;1.00
14517;DHT22;7344;50.864;4.362;2023-03-19T12:59:08;15.80;1.00
14517;DHT22;7344;50.864;4.362;2023-03-19T13:01:49;15.80;1.00
14517;DHT22;7344;50.864;4.362;2023-03-19T13:04:25;16.10;1.00
14517;DHT22;7344;50.864;4.362;2023-03-19T13:07:00;16.30;1.00
14517;DHT22;7344;50.864;4.362;2023-03-19T13:09:31;16.50;1.00
14517;DHT22;7344;50.864;4.362;2023-03-19T13:12:19;16.30;1.00
14517;DHT22;7344;50.864;4.362;2023-03-19T13:23:05;14.90;1.00
14517;DHT22;7344;50.864;4.362;2023-03-19T13:25:37;15.10;1.00
14517;DHT22;7344;50.864;4.362;2023-03-19T13:28:12;15.10;1.00
14517;DHT22;7344;50.864;4.362;2023-03-19T13:30:58;15.10;1.00
14517;DHT22;7344;50.864;4.362;2023-03-19T13:33:24;15.00;1.00
14517;DHT22;7344;50.864;4.362;2023-03-19T13:35:50;15.10;1.00
14517;DHT22;7344;50.864;4.362;2023-03-19T13:38:20;15.10;1.00
14517;DHT22;7344;50.864;4.362;2023-03-19T13:40:50;15.30;1.00
14517;DHT22;7344;50.864;4.362;2023-03-19T13:54:03;15.60;1.00
14517;DHT22;7344;50.864;4.362;2023-03-19T13:56:34;15.80;1.00
14517;DHT22;7344;50.864;4.362;2023-03-19T13:59:25;16.00;1.00
14517;DHT22;7344;50.864;4.362;2023-03-19T14:01:52;16.30;1.00
14517;DHT22;7344;50.864;4.362;2023-03-19T14:04:27;16.30;1.00
14517;DHT22;7344;50.864;4.362;2023-03-19T14:07:17;16.10;1.00
14517;DHT22;7344;50.864;4.362;2023-03-19T14:09:46;16.00;1.00
14517;DHT22;7344;50.864;4.362;2023-03-19T14:17:20;15.90;1.00
14517;DHT22;7344;50.864;4.362;2023-03-19T14:19:48;16.20;1.00
14517;DHT22;7344;50.864;4.362;2023-03-19T14:22:36;16.20;1.00
14517;DHT22;7344;50.864;4.362;2023-03-19T14:25:14;15.90;1.00
14517;DHT22;7344;50.864;4.362;2023-03-19T14:27:58;15.70;1.00
14517;DHT22;7344;50.864;4.362;2023-03-19T14:35:47;14.90;1.00
14517;DHT22;7344;50.864;4.362;2023-03-19T14:41:39;14.50;1.00
14517;DHT22;7344;50.864;4.362;2023-03-19T14:47:31;13.90;9.40
14517;DHT22;7344;50.864;4.362;2023-03-19T14:55:34;14.40;1.00
14517;DHT22;7344;50.864;4.362;2023-03-19T14:58:19;14.50;1.00
14517;DHT22;7344;50.864;4.362;2023-03-19T15:00:49;14.60;1.00
14517;DHT22;7344;50.864;4.362;2023-03-19T15:06:13;14.50;1.00
14517;DHT22;7344;50.864;4.362;2023-03-19T15:08:58;14.50;1.00
14517;DHT22;7344;50.864;4.362;2023-03-19T15:11:53;14.40;1.00
14517;DHT22;7344;50.864;4.362;2023-03-19T15:14:40;14.10;1.00
14517;DHT22;7344;50.864;4.362;2023-03-19T15:20:07;13.40;1.20
14517;DHT22;7344;50.864;4.362;2023-03-19T15:22:37;13.20;9.40
14517;DHT22;7344;50.864;4.362;2023-03-19T15:25:13;13.10;15.20
14517;DHT22;7344;50.864;4.362;2023-03-19T15:30:25;13.00;12.10
14517;DHT22;7344;50.864;4.362;2023-03-19T15:32:53;12.90;14.10
14517;DHT22;7344;50.864;4.362;2023-03-19T15:35:20;12.70;17.90
14517;DHT22;7344;50.864;4.362;2023-03-19T15:37:51;12.80;18.60
14517;DHT22;7344;50.864;4.362;2023-03-19T15:40:19;12.70;19.60
14517;DHT22;7344;50.864;4.362;2023-03-19T15:42:47;12.60;23.00
14517;DHT22;7344;50.864;4.362;2023-03-19T15:45:18;12.60;21.90
14517;DHT22;7344;50.864;4.362;2023-03-19T15:47:55;12.60;19.60
14517;DHT22;7344;50.864;4.362;2023-03-19T15:50:24;12.60;22.80
14517;DHT22;7344;50.864;4.362;2023-03-19T15:52:57;12.50;24.20
14517;DHT22;7344;50.864;4.362;2023-03-19T15:55:25;12.40;27.60
14517;DHT22;7344;50.864;4.362;2023-03-19T15:57:55;12.40;30.50
14517;DHT22;7344;50.864;4.362;2023-03-19T16:00:22;12.40;30.70
14517;DHT22;7344;50.864;4.362;2023-03-19T16:02:50;12.40;31.30
14517;DHT22;7344;50.864;4.362;2023-03-19T16:05:30;12.40;32.60
14517;DHT22;7344;50.864;4.362;2023-03-19T16:08:02;12.40;32.50
14517;DHT22;7344;50.864;4.362;2023-03-19T16:12:55;12.20;38.50
14517;DHT22;7344;50.864;4.362;2023-03-19T16:17:50;12.00;41.70
14517;DHT22;7344;50.864;4.362;2023-03-19T16:20:16;11.90;47.40
14517;DHT22;7344;50.864;4.362;2023-03-19T16:22:43;11.80;49.30
14517;DHT22;7344;50.864;4.362;2023-03-19T16:25:16;11.80;51.00
14517;DHT22;7344;50.864;4.362;2023-03-19T16:27:43;11.80;50.10
14517;DHT22;7344;50.864;4.362;2023-03-19T16:30:23;11.70;50.20
14517;DHT22;7344;50.864;4.362;2023-03-19T16:33:00;11.60;51.40
14517;DHT22;7344;50.864;4.362;2023-03-19T16:35:28;11.60;54.30
14517;DHT22;7344;50.864;4.362;2023-03-19T16:38:24;11.60;54.90
14517;DHT22;7344;50.864;4.362;2023-03-19T16:41:15;11.50;58.50
14517;DHT22;7344;50.864;4.362;2023-03-19T16:43:45;11.40;58.10
14517;DHT22;7344;50.864;4.362;2023-03-19T16:46:12;11.40;59.70
14517;DHT22;7344;50.864;4.362;2023-03-19T16:48:39;11.40;58.90
14517;DHT22;7344;50.864;4.362;2023-03-19T16:51:14;11.40;55.60
14517;DHT22;7344;50.864;4.362;2023-03-19T16:53:40;11.40;58.90
14517;DHT22;7344;50.864;4.362;2023-03-19T16:56:08;11.40;56.50
14517;DHT22;7344;50.864;4.362;2023-03-19T16:58:37;11.30;56.40
14517;DHT22;7344;50.864;4.362;2023-03-19T17:01:14;11.40;59.10
14517;DHT22;7344;50.864;4.362;2023-03-19T17:03:41;11.30;52.90
14517;DHT22;7344;50.864;4.362;2023-03-19T17:06:09;11.30;46.70
14517;DHT22;7344;50.864;4.362;2023-03-19T17:08:35;11.20;44.30
14517;DHT22;7344;50.864;4.362;2023-03-19T17:11:01;11.10;38.40
14517;DHT22;7344;50.864;4.362;2023-03-19T17:13:28;11.00;40.50
14517;DHT22;7344;50.864;4.362;2023-03-19T17:15:58;11.00;41.90
14517;DHT22;7344;50.864;4.362;2023-03-19T17:18:27;11.00;37.10
14517;DHT22;7344;50.864;4.362;2023-03-19T17:20:57;11.00;36.60
14517;DHT22;7344;50.864;4.362;2023-03-19T17:23:25;10.90;37.20
14517;DHT22;7344;50.864;4.362;2023-03-19T17:25:52;10.90;40.00
14517;DHT22;7344;50.864;4.362;2023-03-19T17:28:18;10.90;39.60
14517;DHT22;7344;50.864;4.362;2023-03-19T17:30:44;10.90;34.80
14517;DHT22;7344;50.864;4.362;2023-03-19T17:33:26;10.90;34.60
14517;DHT22;7344;50.864;4.362;2023-03-19T17:35:53;10.80;37.30
14517;DHT22;7344;50.864;4.362;2023-03-19T17:38:20;10.80;40.40
14517;DHT22;7344;50.864;4.362;2023-03-19T17:40:46;10.80;41.70
14517;DHT22;7344;50.864;4.362;2023-03-19T17:43:12;10.90;43.40
14517;DHT22;7344;50.864;4.362;2023-03-19T17:45:41;10.90;41.00
14517;DHT22;7344;50.864;4.362;2023-03-19T17:48:17;10.90;42.10
14517;DHT22;7344;50.864;4.362;2023-03-19T17:50:43;10.90;41.50
14517;DHT22;7344;50.864;4.362;2023-03-19T17:53:10;11.00;41.80
14517;DHT22;7344;50.864;4.362;2023-03-19T17:55:36;10.90;43.60
14517;DHT22;7344;50.864;4.362;2023-03-19T17:58:02;11.00;44.90
14517;DHT22;7344;50.864;4.362;2023-03-19T18:00:28;10.90;43.60
14517;DHT22;7344;50.864;4.362;2023-03-19T18:02:54;10.90;46.40
14517;DHT22;7344;50.864;4.362;2023-03-19T18:05:23;10.90;49.50
14517;DHT22;7344;50.864;4.362;2023-03-19T18:07:52;10.80;47.40
14517;DHT22;7344;50.864;4.362;2023-03-19T18:10:23;10.70;51.70
14517;DHT22;7344;50.864;4.362;2023-03-19T18:12:51;10.60;54.90
14517;DHT22;7344;50.864;4.362;2023-03-19T18:15:17;10.60;56.10